Hauptseite
METAR-TAF:

METAR-TAF

Flughäfen :

Scatsta Airport

Scatsta, Shetlandinseln, Schottland

Breite: 60-26N, Länge: 001-18W, Höhe: 22 m

Beobachtung

Neuester Wetterbericht von vor 19 Minuten, um 00:50 UTC
Wind 14 kt aus West
Temperatur 3°C
Luftfeuchtigkeit 81%
Luftdruck 1009 hPa
Sichtweite 10 km oder mehr

METAR: EGPM 240050Z AUTO 28014KT 9999 FEW039/// 03/M00 Q1009

Zeit: 01:09 (01:09 UTC)

Prognose

Neuester Wetterbericht von vor 11 Stunden und 12 Minuten, um 13:57 UTC
Gültige Prognose vom 23 um 15 UTC bis 23 um 20 UTC
Wind 9 kt aus Nord
Sichtweite 10 km oder mehr
Leicht bewölkt in der Höhe von 2000 ft
Aufgelockert bewölkt in der Höhe von 3000 ft
Wahrscheinlichkeit 30% :
Zeitweise
vom 23 um 15 UTC bis 23 um 20 UTC
Wind 15 kt aus Nord/Nordwest, Böen bis zu 25 kt

TAF: EGPM 231357Z 2315/2320 35009KT 9999 FEW020 SCT030 PROB30 TEMPO 2315/2320 33015G25KT

Wetterbeobachtungen und Prognosen von mehr als 4000 Flughäfen (METAR und TAF Bericht).

Die verfügbaren Stationen werden durch gelbe und rote Markierungen auf der Karte dargestellt.

Führen Sie die Maus auf sie, um den Namen der Station zu sehen.

Darauf klicken, um die Beobachtung von Wetterbeobachtungen und Prognosen zu sehen.

Um die Karte zu ändern : klicken Sie auf den grünen Tasten mit einem schwarzen Kreuz Zum Vergrößern, auf den grünen Button mit einem Gedankenstrich zu verkleinern, oder auf die grünen Pfeile für benachbarte Karten.


METAR-TAF: